sensor_id;sensor_type;location;lat;lon;timestamp;pressure;altitude;pressure_sealevel;temperature;humidity
48555;BME280;34336;48.270;16.716;2022-11-15T00:00:16;77133.72;;;18.16;100.00
48555;BME280;34336;48.270;16.716;2022-11-15T00:03:00;77122.16;;;18.16;100.00
48555;BME280;34336;48.270;16.716;2022-11-15T00:05:45;77129.88;;;18.16;100.00
48555;BME280;34336;48.270;16.716;2022-11-15T00:08:31;77127.94;;;18.16;100.00
48555;BME280;34336;48.270;16.716;2022-11-15T00:11:16;77135.66;;;18.16;100.00
48555;BME280;34336;48.270;16.716;2022-11-15T00:14:02;77133.72;;;18.16;100.00
48555;BME280;34336;48.270;16.716;2022-11-15T00:16:47;77129.88;;;18.16;100.00
48555;BME280;34336;48.270;16.716;2022-11-15T00:19:32;77129.88;;;18.16;100.00
48555;BME280;34336;48.270;16.716;2022-11-15T00:22:18;77131.78;;;18.16;100.00
48555;BME280;34336;48.270;16.716;2022-11-15T00:25:03;77129.88;;;18.16;100.00
48555;BME280;34336;48.270;16.716;2022-11-15T00:27:48;77122.16;;;18.16;100.00
48555;BME280;34336;48.270;16.716;2022-11-15T00:30:34;77126.00;;;18.16;100.00
48555;BME280;34336;48.270;16.716;2022-11-15T00:33:19;77126.00;;;18.16;100.00
48555;BME280;34336;48.270;16.716;2022-11-15T00:36:08;77133.72;;;18.16;100.00
48555;BME280;34336;48.270;16.716;2022-11-15T00:38:56;77126.00;;;18.16;100.00
48555;BME280;34336;48.270;16.716;2022-11-15T00:41:41;77129.88;;;18.16;100.00
48555;BME280;34336;48.270;16.716;2022-11-15T00:44:26;77126.00;;;18.16;100.00
48555;BME280;34336;48.270;16.716;2022-11-15T00:47:11;77126.00;;;18.16;100.00
48555;BME280;34336;48.270;16.716;2022-11-15T00:49:57;77127.94;;;18.16;100.00
48555;BME280;34336;48.270;16.716;2022-11-15T00:52:42;77133.72;;;18.16;100.00
48555;BME280;34336;48.270;16.716;2022-11-15T00:55:28;77126.00;;;18.16;100.00
48555;BME280;34336;48.270;16.716;2022-11-15T00:58:13;77133.72;;;18.16;100.00
48555;BME280;34336;48.270;16.716;2022-11-15T01:01:11;77127.94;;;18.16;100.00
48555;BME280;34336;48.270;16.716;2022-11-15T01:03:56;77122.16;;;18.16;100.00
48555;BME280;34336;48.270;16.716;2022-11-15T01:06:45;77114.44;;;18.16;100.00
48555;BME280;34336;48.270;16.716;2022-11-15T01:09:31;77120.22;;;18.16;100.00
48555;BME280;34336;48.270;16.716;2022-11-15T01:12:16;77116.38;;;18.16;100.00
48555;BME280;34336;48.270;16.716;2022-11-15T01:15:01;77114.44;;;18.16;100.00
48555;BME280;34336;48.270;16.716;2022-11-15T01:17:46;77110.59;;;18.16;100.00
48555;BME280;34336;48.270;16.716;2022-11-15T01:20:32;77102.88;;;18.16;100.00
48555;BME280;34336;48.270;16.716;2022-11-15T01:23:17;77106.75;;;18.16;100.00
48555;BME280;34336;48.270;16.716;2022-11-15T01:26:02;77100.97;;;18.16;100.00
48555;BME280;34336;48.270;16.716;2022-11-15T01:28:48;77099.03;;;18.16;100.00
48555;BME280;34336;48.270;16.716;2022-11-15T01:31:33;77110.59;;;18.16;100.00
48555;BME280;34336;48.270;16.716;2022-11-15T01:34:19;77114.44;;;18.16;100.00
48555;BME280;34336;48.270;16.716;2022-11-15T01:37:04;77106.75;;;18.16;100.00
48555;BME280;34336;48.270;16.716;2022-11-15T01:39:49;77112.53;;;18.16;100.00
48555;BME280;34336;48.270;16.716;2022-11-15T01:42:35;77114.44;;;18.16;100.00
48555;BME280;34336;48.270;16.716;2022-11-15T01:45:20;77112.53;;;18.16;100.00
48555;BME280;34336;48.270;16.716;2022-11-15T01:48:07;77106.75;;;18.16;100.00
48555;BME280;34336;48.270;16.716;2022-11-15T01:50:53;77114.44;;;18.16;100.00
48555;BME280;34336;48.270;16.716;2022-11-15T01:53:38;77102.88;;;18.16;100.00
48555;BME280;34336;48.270;16.716;2022-11-15T01:56:26;77102.88;;;18.16;100.00
48555;BME280;34336;48.270;16.716;2022-11-15T01:59:12;77099.03;;;18.16;100.00
48555;BME280;34336;48.270;16.716;2022-11-15T02:01:57;77097.09;;;18.16;100.00
48555;BME280;34336;48.270;16.716;2022-11-15T02:04:43;77091.31;;;18.16;100.00
48555;BME280;34336;48.270;16.716;2022-11-15T02:07:29;77102.88;;;18.16;100.00
48555;BME280;34336;48.270;16.716;2022-11-15T02:10:19;77106.75;;;18.16;100.00
48555;BME280;34336;48.270;16.716;2022-11-15T02:13:05;77100.97;;;18.16;100.00
48555;BME280;34336;48.270;16.716;2022-11-15T02:16:12;77106.75;;;18.16;100.00
48555;BME280;34336;48.270;16.716;2022-11-15T02:25:00;77114.44;;;18.16;100.00
48555;BME280;34336;48.270;16.716;2022-11-15T02:30:51;77116.38;;;18.16;100.00
48555;BME280;34336;48.270;16.716;2022-11-15T02:34:00;77110.59;;;18.16;100.00
48555;BME280;34336;48.270;16.716;2022-11-15T02:36:53;77114.44;;;18.16;100.00
48555;BME280;34336;48.270;16.716;2022-11-15T02:39:51;77106.75;;;18.16;100.00
48555;BME280;34336;48.270;16.716;2022-11-15T02:42:42;77118.31;;;18.16;100.00
48555;BME280;34336;48.270;16.716;2022-11-15T02:45:54;77102.88;;;18.16;100.00
48555;BME280;34336;48.270;16.716;2022-11-15T02:48:44;77108.66;;;18.16;100.00
48555;BME280;34336;48.270;16.716;2022-11-15T02:51:29;77110.59;;;18.16;100.00
48555;BME280;34336;48.270;16.716;2022-11-15T02:54:15;77114.44;;;18.16;100.00
48555;BME280;34336;48.270;16.716;2022-11-15T02:57:06;77112.53;;;18.16;100.00
48555;BME280;34336;48.270;16.716;2022-11-15T03:00:03;77110.59;;;18.16;100.00
48555;BME280;34336;48.270;16.716;2022-11-15T03:11:38;77091.31;;;18.16;100.00
48555;BME280;34336;48.270;16.716;2022-11-15T03:14:28;77089.38;;;18.16;100.00
48555;BME280;34336;48.270;16.716;2022-11-15T03:17:26;77079.75;;;18.16;100.00
48555;BME280;34336;48.270;16.716;2022-11-15T03:20:13;77083.59;;;18.16;100.00
48555;BME280;34336;48.270;16.716;2022-11-15T03:23:06;77075.91;;;18.16;100.00
48555;BME280;34336;48.270;16.716;2022-11-15T03:25:52;77075.91;;;18.16;100.00
48555;BME280;34336;48.270;16.716;2022-11-15T03:28:41;77068.19;;;18.16;100.00
48555;BME280;34336;48.270;16.716;2022-11-15T03:31:28;77066.25;;;18.16;100.00
48555;BME280;34336;48.270;16.716;2022-11-15T03:34:40;77064.34;;;18.16;100.00
48555;BME280;34336;48.270;16.716;2022-11-15T03:37:31;77066.25;;;18.16;100.00
48555;BME280;34336;48.270;16.716;2022-11-15T03:40:20;77052.78;;;18.16;100.00
48555;BME280;34336;48.270;16.716;2022-11-15T03:43:09;77062.41;;;18.16;100.00
48555;BME280;34336;48.270;16.716;2022-11-15T03:46:06;77060.47;;;18.16;100.00
48555;BME280;34336;48.270;16.716;2022-11-15T03:48:54;77056.63;;;18.16;100.00
48555;BME280;34336;48.270;16.716;2022-11-15T03:51:42;77064.34;;;18.16;100.00
48555;BME280;34336;48.270;16.716;2022-11-15T03:54:27;77056.63;;;18.16;100.00
48555;BME280;34336;48.270;16.716;2022-11-15T03:57:12;77052.78;;;18.16;100.00
48555;BME280;34336;48.270;16.716;2022-11-15T03:59:57;77047.00;;;18.16;100.00
48555;BME280;34336;48.270;16.716;2022-11-15T04:02:42;77041.22;;;18.16;100.00
48555;BME280;34336;48.270;16.716;2022-11-15T04:05:27;77041.22;;;18.16;100.00
48555;BME280;34336;48.270;16.716;2022-11-15T04:08:12;77041.22;;;18.16;100.00
48555;BME280;34336;48.270;16.716;2022-11-15T04:10:57;77025.78;;;18.16;100.00
48555;BME280;34336;48.270;16.716;2022-11-15T04:13:42;77023.88;;;18.16;100.00
48555;BME280;34336;48.270;16.716;2022-11-15T04:16:27;77018.09;;;18.16;100.00
48555;BME280;34336;48.270;16.716;2022-11-15T04:19:12;77025.78;;;18.16;100.00
48555;BME280;34336;48.270;16.716;2022-11-15T04:22:16;77029.66;;;18.16;100.00
48555;BME280;34336;48.270;16.716;2022-11-15T04:25:20;77029.66;;;18.16;100.00
48555;BME280;34336;48.270;16.716;2022-11-15T04:28:09;77027.72;;;18.16;100.00
48555;BME280;34336;48.270;16.716;2022-11-15T04:30:54;77025.78;;;18.16;100.00
48555;BME280;34336;48.270;16.716;2022-11-15T04:33:39;77029.66;;;18.16;100.00
48555;BME280;34336;48.270;16.716;2022-11-15T04:36:24;77018.09;;;18.16;100.00
48555;BME280;34336;48.270;16.716;2022-11-15T04:39:28;77012.31;;;18.16;100.00
48555;BME280;34336;48.270;16.716;2022-11-15T04:42:13;77012.31;;;18.16;100.00
48555;BME280;34336;48.270;16.716;2022-11-15T04:44:58;77010.38;;;18.16;100.00
48555;BME280;34336;48.270;16.716;2022-11-15T04:47:44;77016.16;;;18.16;100.00
48555;BME280;34336;48.270;16.716;2022-11-15T04:50:29;77018.09;;;18.16;100.00
48555;BME280;34336;48.270;16.716;2022-11-15T04:53:14;77010.38;;;18.16;100.00
48555;BME280;34336;48.270;16.716;2022-11-15T04:55:59;77014.22;;;18.16;100.00
48555;BME280;34336;48.270;16.716;2022-11-15T04:58:44;77006.53;;;18.16;100.00
48555;BME280;34336;48.270;16.716;2022-11-15T05:01:29;77014.22;;;18.16;100.00
48555;BME280;34336;48.270;16.716;2022-11-15T05:04:15;77010.38;;;18.16;100.00
48555;BME280;34336;48.270;16.716;2022-11-15T05:07:05;77002.66;;;18.16;100.00
48555;BME280;34336;48.270;16.716;2022-11-15T05:09:50;77002.66;;;18.16;100.00
48555;BME280;34336;48.270;16.716;2022-11-15T05:12:35;77002.66;;;18.16;100.00
48555;BME280;34336;48.270;16.716;2022-11-15T05:15:21;76994.97;;;18.16;100.00
48555;BME280;34336;48.270;16.716;2022-11-15T05:18:05;76998.81;;;18.16;100.00
48555;BME280;34336;48.270;16.716;2022-11-15T05:20:51;76987.25;;;18.16;100.00
48555;BME280;34336;48.270;16.716;2022-11-15T05:23:36;76981.47;;;18.16;100.00
48555;BME280;34336;48.270;16.716;2022-11-15T05:26:21;76979.53;;;18.16;100.00
48555;BME280;34336;48.270;16.716;2022-11-15T05:29:06;76979.53;;;18.16;100.00
48555;BME280;34336;48.270;16.716;2022-11-15T05:31:51;76971.81;;;18.16;100.00
48555;BME280;34336;48.270;16.716;2022-11-15T05:34:36;76967.97;;;18.16;100.00
48555;BME280;34336;48.270;16.716;2022-11-15T05:37:22;76960.25;;;18.16;100.00
48555;BME280;34336;48.270;16.716;2022-11-15T05:40:07;76964.13;;;18.16;100.00
48555;BME280;34336;48.270;16.716;2022-11-15T05:42:52;76960.25;;;18.16;100.00
48555;BME280;34336;48.270;16.716;2022-11-15T05:45:38;76958.34;;;18.16;100.00
48555;BME280;34336;48.270;16.716;2022-11-15T05:48:23;76960.25;;;18.16;100.00
48555;BME280;34336;48.270;16.716;2022-11-15T05:51:08;76952.56;;;18.16;100.00
48555;BME280;34336;48.270;16.716;2022-11-15T05:53:53;76960.25;;;18.16;100.00
48555;BME280;34336;48.270;16.716;2022-11-15T05:56:40;76950.63;;;18.16;100.00
48555;BME280;34336;48.270;16.716;2022-11-15T05:59:25;76944.84;;;18.16;100.00
48555;BME280;34336;48.270;16.716;2022-11-15T06:02:13;76948.69;;;18.16;100.00
48555;BME280;34336;48.270;16.716;2022-11-15T06:04:58;76948.69;;;18.16;100.00
48555;BME280;34336;48.270;16.716;2022-11-15T06:07:43;76946.78;;;18.16;100.00
48555;BME280;34336;48.270;16.716;2022-11-15T06:10:29;76952.56;;;18.16;100.00
48555;BME280;34336;48.270;16.716;2022-11-15T06:13:14;76946.78;;;18.16;100.00
48555;BME280;34336;48.270;16.716;2022-11-15T06:15:59;76942.91;;;18.16;100.00
48555;BME280;34336;48.270;16.716;2022-11-15T06:18:45;76939.06;;;18.16;100.00
48555;BME280;34336;48.270;16.716;2022-11-15T06:21:30;76939.06;;;18.16;100.00
48555;BME280;34336;48.270;16.716;2022-11-15T06:24:17;76944.84;;;18.16;100.00
48555;BME280;34336;48.270;16.716;2022-11-15T06:27:02;76946.78;;;18.16;100.00
48555;BME280;34336;48.270;16.716;2022-11-15T06:29:47;76944.84;;;18.16;100.00
48555;BME280;34336;48.270;16.716;2022-11-15T06:32:32;76952.56;;;18.16;100.00
48555;BME280;34336;48.270;16.716;2022-11-15T06:35:17;76948.69;;;18.16;100.00
48555;BME280;34336;48.270;16.716;2022-11-15T06:38:03;76941.00;;;18.16;100.00
48555;BME280;34336;48.270;16.716;2022-11-15T06:40:49;76939.06;;;18.16;100.00
48555;BME280;34336;48.270;16.716;2022-11-15T06:43:34;76933.28;;;18.16;100.00
48555;BME280;34336;48.270;16.716;2022-11-15T06:46:19;76929.44;;;18.16;100.00
48555;BME280;34336;48.270;16.716;2022-11-15T06:49:04;76925.56;;;18.16;100.00
48555;BME280;34336;48.270;16.716;2022-11-15T06:51:53;76929.44;;;18.16;100.00
48555;BME280;34336;48.270;16.716;2022-11-15T06:54:39;76933.28;;;18.16;100.00
48555;BME280;34336;48.270;16.716;2022-11-15T06:57:23;76931.34;;;18.16;100.00
48555;BME280;34336;48.270;16.716;2022-11-15T07:00:08;76929.44;;;18.16;100.00
48555;BME280;34336;48.270;16.716;2022-11-15T07:02:54;76931.34;;;18.16;100.00
48555;BME280;34336;48.270;16.716;2022-11-15T07:05:39;76933.28;;;18.16;100.00
48555;BME280;34336;48.270;16.716;2022-11-15T07:08:24;76937.13;;;18.16;100.00
48555;BME280;34336;48.270;16.716;2022-11-15T07:11:11;76941.00;;;18.16;100.00
48555;BME280;34336;48.270;16.716;2022-11-15T07:13:56;76946.78;;;18.16;100.00
48555;BME280;34336;48.270;16.716;2022-11-15T07:16:41;76944.84;;;18.16;100.00
48555;BME280;34336;48.270;16.716;2022-11-15T07:19:27;76944.84;;;18.16;100.00
48555;BME280;34336;48.270;16.716;2022-11-15T07:22:12;76950.63;;;18.16;100.00
48555;BME280;34336;48.270;16.716;2022-11-15T07:24:57;76944.84;;;18.16;100.00
48555;BME280;34336;48.270;16.716;2022-11-15T07:27:42;76946.78;;;18.16;100.00
48555;BME280;34336;48.270;16.716;2022-11-15T07:30:28;76937.13;;;18.16;100.00
48555;BME280;34336;48.270;16.716;2022-11-15T07:33:13;76933.28;;;18.16;100.00
48555;BME280;34336;48.270;16.716;2022-11-15T07:35:59;76929.44;;;18.16;100.00
48555;BME280;34336;48.270;16.716;2022-11-15T07:38:46;76929.44;;;18.16;100.00
48555;BME280;34336;48.270;16.716;2022-11-15T07:41:31;76917.88;;;18.16;100.00
48555;BME280;34336;48.270;16.716;2022-11-15T07:44:16;76917.88;;;18.16;100.00
48555;BME280;34336;48.270;16.716;2022-11-15T07:47:01;76914.00;;;18.16;100.00
48555;BME280;34336;48.270;16.716;2022-11-15T07:49:46;76904.38;;;18.16;100.00
48555;BME280;34336;48.270;16.716;2022-11-15T07:52:31;76904.38;;;18.16;100.00
48555;BME280;34336;48.270;16.716;2022-11-15T07:55:16;76902.44;;;18.16;100.00
48555;BME280;34336;48.270;16.716;2022-11-15T07:58:02;76894.75;;;18.16;100.00
48555;BME280;34336;48.270;16.716;2022-11-15T08:00:47;76888.97;;;18.16;100.00
48555;BME280;34336;48.270;16.716;2022-11-15T08:03:32;76883.19;;;18.16;100.00
48555;BME280;34336;48.270;16.716;2022-11-15T08:06:18;76879.31;;;18.16;100.00
48555;BME280;34336;48.270;16.716;2022-11-15T08:09:04;76879.31;;;18.16;100.00
48555;BME280;34336;48.270;16.716;2022-11-15T08:11:49;76869.69;;;18.16;100.00
48555;BME280;34336;48.270;16.716;2022-11-15T08:14:34;76871.63;;;18.16;100.00
48555;BME280;34336;48.270;16.716;2022-11-15T08:17:20;76860.06;;;18.16;100.00
48555;BME280;34336;48.270;16.716;2022-11-15T08:20:05;76860.06;;;18.16;100.00
48555;BME280;34336;48.270;16.716;2022-11-15T08:22:50;76858.13;;;18.16;100.00
48555;BME280;34336;48.270;16.716;2022-11-15T08:25:36;76846.56;;;18.16;100.00
48555;BME280;34336;48.270;16.716;2022-11-15T08:28:21;76848.47;;;18.16;100.00
48555;BME280;34336;48.270;16.716;2022-11-15T08:31:06;76840.78;;;18.16;100.00
48555;BME280;34336;48.270;16.716;2022-11-15T08:33:51;76833.06;;;18.16;100.00
48555;BME280;34336;48.270;16.716;2022-11-15T08:36:36;76842.69;;;18.16;100.00
48555;BME280;34336;48.270;16.716;2022-11-15T08:39:29;76844.63;;;18.16;100.00
48555;BME280;34336;48.270;16.716;2022-11-15T08:42:14;76844.63;;;18.16;100.00
48555;BME280;34336;48.270;16.716;2022-11-15T08:45:04;76836.94;;;18.16;100.00
48555;BME280;34336;48.270;16.716;2022-11-15T08:47:49;76821.50;;;18.16;100.00
48555;BME280;34336;48.270;16.716;2022-11-15T08:50:38;76813.78;;;18.16;100.00
48555;BME280;34336;48.270;16.716;2022-11-15T08:53:23;76806.09;;;18.16;100.00
48555;BME280;34336;48.270;16.716;2022-11-15T08:56:10;76802.22;;;18.16;100.00
48555;BME280;34336;48.270;16.716;2022-11-15T08:58:56;76800.31;;;18.16;100.00
48555;BME280;34336;48.270;16.716;2022-11-15T09:01:40;76809.94;;;18.16;100.00
48555;BME280;34336;48.270;16.716;2022-11-15T09:04:25;76798.38;;;18.16;100.00
48555;BME280;34336;48.270;16.716;2022-11-15T09:07:11;76788.75;;;18.16;100.00
48555;BME280;34336;48.270;16.716;2022-11-15T09:09:56;76775.25;;;18.16;100.00
48555;BME280;34336;48.270;16.716;2022-11-15T09:12:41;76771.41;;;18.16;100.00
48555;BME280;34336;48.270;16.716;2022-11-15T09:15:26;76769.47;;;18.16;100.00
48555;BME280;34336;48.270;16.716;2022-11-15T09:18:14;76755.97;;;18.16;100.00
48555;BME280;34336;48.270;16.716;2022-11-15T09:20:59;76765.63;;;18.16;100.00
48555;BME280;34336;48.270;16.716;2022-11-15T09:23:44;76759.84;;;18.16;100.00
48555;BME280;34336;48.270;16.716;2022-11-15T09:26:29;76763.69;;;18.16;100.00
48555;BME280;34336;48.270;16.716;2022-11-15T09:29:14;76748.28;;;18.16;100.00
48555;BME280;34336;48.270;16.716;2022-11-15T09:31:59;76736.72;;;18.16;100.00
48555;BME280;34336;48.270;16.716;2022-11-15T09:34:44;76744.41;;;18.16;100.00
48555;BME280;34336;48.270;16.716;2022-11-15T09:37:31;76713.59;;;18.16;100.00
48555;BME280;34336;48.270;16.716;2022-11-15T09:40:16;76725.16;;;18.16;100.00
48555;BME280;34336;48.270;16.716;2022-11-15T09:43:09;76727.06;;;18.16;100.00
48555;BME280;34336;48.270;16.716;2022-11-15T09:46:16;76717.44;;;18.16;100.00
48555;BME280;34336;48.270;16.716;2022-11-15T09:49:22;76719.38;;;18.16;100.00
48555;BME280;34336;48.270;16.716;2022-11-15T09:52:00;76717.44;;;18.16;100.00
48555;BME280;34336;48.270;16.716;2022-11-15T09:57:16;76680.81;;;18.16;100.00
48555;BME280;34336;48.270;16.716;2022-11-15T10:05:37;76640.34;;;18.16;100.00
48555;BME280;34336;48.270;16.716;2022-11-15T10:10:44;76646.13;;;18.16;100.00
48555;BME280;34336;48.270;16.716;2022-11-15T10:13:22;76632.66;;;18.16;100.00
48555;BME280;34336;48.270;16.716;2022-11-15T10:15:50;76626.88;;;18.16;100.00
48555;BME280;34336;48.270;16.716;2022-11-15T10:18:18;76621.09;;;18.16;100.00
48555;BME280;34336;48.270;16.716;2022-11-15T10:20:58;76601.81;;;18.16;100.00
48555;BME280;34336;48.270;16.716;2022-11-15T10:23:25;76578.69;;;18.16;100.00
48555;BME280;34336;48.270;16.716;2022-11-15T10:25:54;76570.97;;;18.16;100.00
48555;BME280;34336;48.270;16.716;2022-11-15T10:28:22;76555.56;;;18.16;100.00
48555;BME280;34336;48.270;16.716;2022-11-15T10:30:59;76567.13;;;18.16;100.00
48555;BME280;34336;48.270;16.716;2022-11-15T10:33:36;76582.53;;;18.16;100.00
48555;BME280;34336;48.270;16.716;2022-11-15T10:41:18;76582.53;;;18.16;100.00
48555;BME280;34336;48.270;16.716;2022-11-15T10:43:46;76557.50;;;18.16;100.00
48555;BME280;34336;48.270;16.716;2022-11-15T10:46:27;76561.34;;;18.16;100.00
48555;BME280;34336;48.270;16.716;2022-11-15T10:49:14;76555.56;;;18.16;100.00
48555;BME280;34336;48.270;16.716;2022-11-15T10:51:51;76549.78;;;18.16;100.00
48555;BME280;34336;48.270;16.716;2022-11-15T10:54:21;76547.84;;;18.16;100.00
48555;BME280;34336;48.270;16.716;2022-11-15T10:56:53;76569.06;;;18.16;100.00
48555;BME280;34336;48.270;16.716;2022-11-15T10:59:23;76544.00;;;18.16;100.00
48555;BME280;34336;48.270;16.716;2022-11-15T11:01:50;76513.16;;;18.16;100.00
48555;BME280;34336;48.270;16.716;2022-11-15T11:04:17;76532.44;;;18.16;100.00
48555;BME280;34336;48.270;16.716;2022-11-15T11:06:49;76513.16;;;18.16;100.00
48555;BME280;34336;48.270;16.716;2022-11-15T11:09:28;76522.81;;;18.16;100.00
48555;BME280;34336;48.270;16.716;2022-11-15T11:11:55;76511.25;;;18.16;100.00
48555;BME280;34336;48.270;16.716;2022-11-15T11:14:26;76511.25;;;18.16;100.00
48555;BME280;34336;48.270;16.716;2022-11-15T11:16:55;76534.38;;;18.16;100.00
48555;BME280;34336;48.270;16.716;2022-11-15T11:19:39;76540.16;;;18.16;100.00
48555;BME280;34336;48.270;16.716;2022-11-15T11:30:14;76544.00;;;18.16;100.00
48555;BME280;34336;48.270;16.716;2022-11-15T11:38:34;76536.28;;;18.16;100.00
48555;BME280;34336;48.270;16.716;2022-11-15T11:51:09;76530.50;;;18.16;100.00
48555;BME280;34336;48.270;16.716;2022-11-15T11:53:44;76536.28;;;18.16;100.00
48555;BME280;34336;48.270;16.716;2022-11-15T11:58:47;76528.59;;;18.16;100.00
48555;BME280;34336;48.270;16.716;2022-11-15T12:03:45;76509.31;;;18.16;100.00
48555;BME280;34336;48.270;16.716;2022-11-15T12:06:26;76507.38;;;18.16;100.00
48555;BME280;34336;48.270;16.716;2022-11-15T12:13:56;76482.34;;;18.16;100.00
48555;BME280;34336;48.270;16.716;2022-11-15T12:16:28;76468.84;;;18.16;100.00
48555;BME280;34336;48.270;16.716;2022-11-15T12:18:56;76470.78;;;18.16;100.00
48555;BME280;34336;48.270;16.716;2022-11-15T12:21:27;76466.94;;;18.16;100.00
48555;BME280;34336;48.270;16.716;2022-11-15T12:24:05;76451.50;;;18.16;100.00
48555;BME280;34336;48.270;16.716;2022-11-15T12:26:36;76443.81;;;18.16;100.00
48555;BME280;34336;48.270;16.716;2022-11-15T12:29:18;76443.81;;;18.16;100.00
48555;BME280;34336;48.270;16.716;2022-11-15T12:31:48;76436.09;;;18.16;100.00
48555;BME280;34336;48.270;16.716;2022-11-15T12:36:46;76424.53;;;18.16;100.00
48555;BME280;34336;48.270;16.716;2022-11-15T12:39:14;76416.81;;;18.16;100.00
48555;BME280;34336;48.270;16.716;2022-11-15T12:41:42;76418.75;;;18.16;100.00
48555;BME280;34336;48.270;16.716;2022-11-15T12:44:10;76411.03;;;18.16;100.00
48555;BME280;34336;48.270;16.716;2022-11-15T12:49:09;76414.91;;;18.16;100.00
48555;BME280;34336;48.270;16.716;2022-11-15T13:02:18;76424.53;;;18.16;100.00
48555;BME280;34336;48.270;16.716;2022-11-15T13:04:45;76416.81;;;18.16;100.00
48555;BME280;34336;48.270;16.716;2022-11-15T13:09:58;76412.97;;;18.16;100.00
48555;BME280;34336;48.270;16.716;2022-11-15T13:17:33;76393.69;;;18.16;100.00
48555;BME280;34336;48.270;16.716;2022-11-15T13:27:47;76378.28;;;18.16;100.00
48555;BME280;34336;48.270;16.716;2022-11-15T13:30:22;76378.28;;;18.16;100.00
48555;BME280;34336;48.270;16.716;2022-11-15T13:32:49;76370.56;;;18.16;100.00
48555;BME280;34336;48.270;16.716;2022-11-15T13:35:27;76366.72;;;18.16;100.00
48555;BME280;34336;48.270;16.716;2022-11-15T13:37:55;76362.88;;;18.16;100.00
48555;BME280;34336;48.270;16.716;2022-11-15T13:40:26;76359.00;;;18.16;100.00
48555;BME280;34336;48.270;16.716;2022-11-15T13:42:59;76359.00;;;18.16;100.00
48555;BME280;34336;48.270;16.716;2022-11-15T13:45:26;76355.16;;;18.16;100.00
48555;BME280;34336;48.270;16.716;2022-11-15T13:47:55;76347.47;;;18.16;100.00
48555;BME280;34336;48.270;16.716;2022-11-15T13:50:25;76345.53;;;18.16;100.00
48555;BME280;34336;48.270;16.716;2022-11-15T13:52:53;76343.59;;;18.16;100.00
48555;BME280;34336;48.270;16.716;2022-11-15T13:55:23;76339.75;;;18.16;100.00
48555;BME280;34336;48.270;16.716;2022-11-15T13:57:51;76335.91;;;18.16;100.00
48555;BME280;34336;48.270;16.716;2022-11-15T14:03:12;76330.13;;;18.16;100.00
48555;BME280;34336;48.270;16.716;2022-11-15T14:05:41;76326.25;;;18.16;100.00
48555;BME280;34336;48.270;16.716;2022-11-15T14:08:23;76330.13;;;18.16;100.00
48555;BME280;34336;48.270;16.716;2022-11-15T14:11:05;76326.25;;;18.16;100.00
48555;BME280;34336;48.270;16.716;2022-11-15T14:13:32;76322.41;;;18.16;100.00
48555;BME280;34336;48.270;16.716;2022-11-15T14:16:14;76316.63;;;18.16;100.00
48555;BME280;34336;48.270;16.716;2022-11-15T14:21:11;76308.91;;;18.16;100.00
48555;BME280;34336;48.270;16.716;2022-11-15T14:23:38;76312.78;;;18.16;100.00
48555;BME280;34336;48.270;16.716;2022-11-15T14:26:05;76316.63;;;18.16;100.00
48555;BME280;34336;48.270;16.716;2022-11-15T14:28:37;76324.34;;;18.16;100.00
48555;BME280;34336;48.270;16.716;2022-11-15T14:31:10;76322.41;;;18.16;100.00
48555;BME280;34336;48.270;16.716;2022-11-15T14:33:40;76316.63;;;18.16;100.00
48555;BME280;34336;48.270;16.716;2022-11-15T14:36:11;76328.19;;;18.16;100.00
48555;BME280;34336;48.270;16.716;2022-11-15T14:38:38;76328.19;;;18.16;100.00
48555;BME280;34336;48.270;16.716;2022-11-15T14:41:05;76332.03;;;18.16;100.00
48555;BME280;34336;48.270;16.716;2022-11-15T14:43:32;76326.25;;;18.16;100.00
48555;BME280;34336;48.270;16.716;2022-11-15T14:45:58;76326.25;;;18.16;100.00
48555;BME280;34336;48.270;16.716;2022-11-15T14:48:26;76320.47;;;18.16;100.00
48555;BME280;34336;48.270;16.716;2022-11-15T14:50:53;76326.25;;;18.16;100.00
48555;BME280;34336;48.270;16.716;2022-11-15T14:53:19;76324.34;;;18.16;100.00
48555;BME280;34336;48.270;16.716;2022-11-15T14:55:46;76328.19;;;18.16;100.00
48555;BME280;34336;48.270;16.716;2022-11-15T14:58:13;76320.47;;;18.16;100.00
48555;BME280;34336;48.270;16.716;2022-11-15T15:00:40;76324.34;;;18.16;100.00
48555;BME280;34336;48.270;16.716;2022-11-15T15:03:07;76320.47;;;18.16;100.00
48555;BME280;34336;48.270;16.716;2022-11-15T15:05:37;76320.47;;;18.16;100.00
48555;BME280;34336;48.270;16.716;2022-11-15T15:08:05;76324.34;;;18.16;100.00
48555;BME280;34336;48.270;16.716;2022-11-15T15:10:39;76316.63;;;18.16;100.00
48555;BME280;34336;48.270;16.716;2022-11-15T15:13:14;76316.63;;;18.16;100.00
48555;BME280;34336;48.270;16.716;2022-11-15T15:15:41;76312.78;;;18.16;100.00
48555;BME280;34336;48.270;16.716;2022-11-15T15:18:08;76305.06;;;18.16;100.00
48555;BME280;34336;48.270;16.716;2022-11-15T15:20:37;76301.22;;;18.16;100.00
48555;BME280;34336;48.270;16.716;2022-11-15T15:23:04;76305.06;;;18.16;100.00
48555;BME280;34336;48.270;16.716;2022-11-15T15:25:33;76305.06;;;18.16;100.00
48555;BME280;34336;48.270;16.716;2022-11-15T15:28:00;76299.28;;;18.16;100.00
48555;BME280;34336;48.270;16.716;2022-11-15T15:30:27;76301.22;;;18.16;100.00
48555;BME280;34336;48.270;16.716;2022-11-15T15:32:55;76301.22;;;18.16;100.00
48555;BME280;34336;48.270;16.716;2022-11-15T15:35:21;76299.28;;;18.16;100.00
48555;BME280;34336;48.270;16.716;2022-11-15T15:37:48;76295.44;;;18.16;100.00